Time;durP1;ratioP1;P1;durP2;ratioP2;P2;SDS_P1;SDS_P2;PMS_P1;PMS_P2;Temp;Humidity;BMP_temperature;BMP_pressure;BME280_temperature;BME280_humidity;BME280_pressure;Samples;Min_cycle;Max_cycle;Signal;HPM_P1;HPM_P2
2024/01/28 00:02:24;;;;;;;3.10;2.47;;;;;;;;;;5027878;28;20185;-53
2024/01/28 00:04:50;;;;;;;2.70;2.03;;;;;;;;;;5022339;28;20287;-53
2024/01/28 00:07:16;;;;;;;4.40;2.10;;;;;;;;;;5028869;28;20911;-53
2024/01/28 00:09:42;;;;;;;4.23;2.27;;;;;;;;;;5026366;28;20710;-53
2024/01/28 00:12:10;;;;;;;3.07;2.10;;;;;;;;;;5026637;28;20208;-53
2024/01/28 00:14:36;;;;;;;3.53;1.90;;;;;;;;;;5005812;28;20190;-53
2024/01/28 00:17:02;;;;;;;3.73;2.30;;;;;;;;;;5024528;28;20178;-54
2024/01/28 00:19:28;;;;;;;5.13;2.23;;;;;;;;;;5023137;28;20224;-53
2024/01/28 00:21:54;;;;;;;3.57;2.37;;;;;;;;;;5022094;28;20538;-53
2024/01/28 00:24:21;;;;;;;3.97;2.77;;;;;;;;;;5021633;28;20185;-53
2024/01/28 00:26:47;;;;;;;4.23;2.23;;;;;;;;;;5027963;28;20650;-52
2024/01/28 00:29:13;;;;;;;4.10;2.17;;;;;;;;;;5026677;28;20178;-53
2024/01/28 00:31:39;;;;;;;6.87;2.50;;;;;;;;;;5029088;28;20708;-53
2024/01/28 00:34:05;;;;;;;3.67;2.40;;;;;;;;;;5025252;28;20301;-53
2024/01/28 00:36:31;;;;;;;3.90;2.27;;;;;;;;;;5024463;28;20289;-53
2024/01/28 00:38:58;;;;;;;3.63;2.27;;;;;;;;;;5020085;28;20209;-52
2024/01/28 00:41:26;;;;;;;4.90;2.17;;;;;;;;;;5025407;28;20201;-52
2024/01/28 00:43:53;;;;;;;2.83;2.27;;;;;;;;;;5020526;28;20575;-53
2024/01/28 00:46:20;;;;;;;2.87;2.10;;;;;;;;;;5026354;28;20721;-53
2024/01/28 00:48:46;;;;;;;3.27;1.90;;;;;;;;;;5027471;28;20277;-53
2024/01/28 00:51:12;;;;;;;2.63;2.07;;;;;;;;;;5026602;28;20660;-53
2024/01/28 00:53:38;;;;;;;4.40;2.87;;;;;;;;;;5024237;28;20206;-54
2024/01/28 00:56:05;;;;;;;3.30;2.30;;;;;;;;;;5023534;28;20205;-53
2024/01/28 00:58:31;;;;;;;6.40;2.53;;;;;;;;;;5028049;28;20194;-53
2024/01/28 01:00:57;;;;;;;4.30;2.07;;;;;;;;;;5021079;28;20196;-52
2024/01/28 01:03:23;;;;;;;4.67;2.20;;;;;;;;;;5024484;28;20212;-53
2024/01/28 01:05:49;;;;;;;2.97;2.07;;;;;;;;;;5024279;28;20188;-52
2024/01/28 01:08:16;;;;;;;5.30;1.87;;;;;;;;;;5023405;28;20617;-53
2024/01/28 01:10:42;;;;;;;2.47;1.90;;;;;;;;;;5018137;28;20304;-52
2024/01/28 01:13:08;;;;;;;4.80;2.50;;;;;;;;;;5027510;28;20819;-56
2024/01/28 01:15:34;;;;;;;4.57;2.03;;;;;;;;;;5026250;28;20321;-53
2024/01/28 01:18:00;;;;;;;6.33;1.90;;;;;;;;;;5022049;28;20266;-53
2024/01/28 01:20:26;;;;;;;3.00;2.00;;;;;;;;;;5020065;28;20197;-52
2024/01/28 01:22:54;;;;;;;3.70;2.23;;;;;;;;;;5024293;28;20181;-54
2024/01/28 01:25:20;;;;;;;2.90;1.93;;;;;;;;;;5023688;28;20614;-54
2024/01/28 01:27:48;;;;;;;4.10;2.00;;;;;;;;;;5027896;28;20726;-54
2024/01/28 01:30:15;;;;;;;5.47;1.90;;;;;;;;;;5024920;28;20197;-54
2024/01/28 01:32:41;;;;;;;4.80;2.30;;;;;;;;;;5023425;28;20651;-54
2024/01/28 01:35:11;;;;;;;3.73;2.20;;;;;;;;;;5024832;28;20182;-54
2024/01/28 01:37:37;;;;;;;6.47;2.10;;;;;;;;;;5023973;28;20189;-54
2024/01/28 01:40:04;;;;;;;8.13;2.17;;;;;;;;;;5024215;28;20182;-54
2024/01/28 01:42:30;;;;;;;4.83;1.97;;;;;;;;;;5020733;28;20291;-54
2024/01/28 01:44:56;;;;;;;4.00;1.93;;;;;;;;;;5025299;28;20261;-54
2024/01/28 01:47:23;;;;;;;5.60;2.10;;;;;;;;;;5022467;28;20816;-54
2024/01/28 01:49:50;;;;;;;4.10;1.73;;;;;;;;;;5019135;28;20768;-54
2024/01/28 01:52:16;;;;;;;3.40;2.10;;;;;;;;;;5023066;28;20861;-54
2024/01/28 01:54:49;;;;;;;3.87;1.83;;;;;;;;;;5021720;28;20236;-54
2024/01/28 01:57:17;;;;;;;4.30;2.20;;;;;;;;;;5024065;28;20247;-54
2024/01/28 01:59:43;;;;;;;3.80;1.93;;;;;;;;;;5023455;28;20182;-54
2024/01/28 02:02:10;;;;;;;3.47;1.90;;;;;;;;;;5022978;28;20253;-54
2024/01/28 02:04:36;;;;;;;3.70;2.50;;;;;;;;;;5021204;28;20225;-54
2024/01/28 02:07:03;;;;;;;3.90;1.63;;;;;;;;;;5019857;28;20221;-54
2024/01/28 02:09:29;;;;;;;3.20;1.90;;;;;;;;;;5023285;28;20594;-54
2024/01/28 02:11:55;;;;;;;4.07;1.97;;;;;;;;;;5024888;28;20182;-54
2024/01/28 02:14:21;;;;;;;5.43;2.53;;;;;;;;;;5022820;28;20209;-54
2024/01/28 02:16:50;;;;;;;4.80;1.90;;;;;;;;;;5020365;28;20711;-54
2024/01/28 02:19:17;;;;;;;4.57;2.00;;;;;;;;;;5023303;28;20185;-54
2024/01/28 02:21:43;;;;;;;4.63;1.70;;;;;;;;;;5023526;28;20185;-54
2024/01/28 02:24:13;;;;;;;2.87;1.73;;;;;;;;;;5018473;28;20640;-54
2024/01/28 02:26:39;;;;;;;3.80;2.20;;;;;;;;;;5020742;28;20595;-54
2024/01/28 02:29:05;;;;;;;3.00;1.73;;;;;;;;;;5020489;28;20240;-54
2024/01/28 02:31:31;;;;;;;2.60;1.90;;;;;;;;;;5019684;28;20194;-54
2024/01/28 02:33:58;;;;;;;2.93;1.70;;;;;;;;;;5020398;28;20236;-53
2024/01/28 02:36:24;;;;;;;2.90;1.70;;;;;;;;;;5018199;28;20528;-53
2024/01/28 02:38:50;;;;;;;3.30;1.97;;;;;;;;;;5021552;28;20676;-52
2024/01/28 02:41:16;;;;;;;6.17;2.23;;;;;;;;;;5020393;28;20174;-53
2024/01/28 02:43:42;;;;;;;3.00;1.90;;;;;;;;;;5017597;28;20206;-52
2024/01/28 02:46:08;;;;;;;2.67;1.70;;;;;;;;;;5023697;28;20256;-52
2024/01/28 02:48:34;;;;;;;3.70;2.20;;;;;;;;;;5024368;28;20189;-53
2024/01/28 02:51:00;;;;;;;4.03;2.03;;;;;;;;;;5024978;28;20215;-53
2024/01/28 02:53:26;;;;;;;5.03;1.67;;;;;;;;;;5022748;28;20567;-52
2024/01/28 02:55:57;;;;;;;5.03;2.10;;;;;;;;;;5020180;28;20174;-52
2024/01/28 02:58:23;;;;;;;3.93;2.13;;;;;;;;;;5024216;28;20668;-53
2024/01/28 03:00:49;;;;;;;4.33;1.30;;;;;;;;;;5023932;28;20182;-53
2024/01/28 03:03:15;;;;;;;3.50;1.60;;;;;;;;;;5027009;28;20186;-53
2024/01/28 03:05:42;;;;;;;5.80;1.90;;;;;;;;;;5025897;28;20797;-53
2024/01/28 03:08:08;;;;;;;3.80;2.10;;;;;;;;;;5025836;28;20232;-53
2024/01/28 03:10:34;;;;;;;2.17;1.90;;;;;;;;;;5027130;28;20193;-53
2024/01/28 03:13:00;;;;;;;3.83;1.73;;;;;;;;;;5027238;28;20548;-53
2024/01/28 03:15:26;;;;;;;6.03;1.90;;;;;;;;;;5023924;28;20193;-53
2024/01/28 03:17:52;;;;;;;3.30;2.10;;;;;;;;;;5022103;28;20263;-53
2024/01/28 03:20:18;;;;;;;4.40;1.80;;;;;;;;;;5022373;28;20193;-53
2024/01/28 03:22:44;;;;;;;2.23;1.47;;;;;;;;;;5024177;28;20646;-53
2024/01/28 03:25:12;;;;;;;3.50;2.10;;;;;;;;;;5022478;28;20277;-53
2024/01/28 03:27:38;;;;;;;2.50;1.77;;;;;;;;;;5023107;28;20213;-52
2024/01/28 03:30:05;;;;;;;3.07;1.83;;;;;;;;;;5027683;28;20212;-53
2024/01/28 03:32:31;;;;;;;2.80;1.57;;;;;;;;;;5025189;28;20646;-53
2024/01/28 03:34:57;;;;;;;4.50;2.00;;;;;;;;;;5026335;28;20274;-52
2024/01/28 03:37:24;;;;;;;5.23;2.20;;;;;;;;;;5024066;28;20182;-52
2024/01/28 03:39:50;;;;;;;4.80;1.80;;;;;;;;;;5025766;28;20630;-53
2024/01/28 03:42:16;;;;;;;2.73;1.80;;;;;;;;;;5025627;28;20201;-52
2024/01/28 03:44:42;;;;;;;2.07;1.67;;;;;;;;;;5025559;28;20186;-49
2024/01/28 03:47:08;;;;;;;4.37;2.10;;;;;;;;;;5026997;28;20233;-49
2024/01/28 03:49:34;;;;;;;3.67;1.60;;;;;;;;;;5023127;28;20205;-52
2024/01/28 03:52:00;;;;;;;2.60;1.40;;;;;;;;;;5029392;28;20201;-49
2024/01/28 03:54:26;;;;;;;3.70;1.93;;;;;;;;;;5024607;28;20206;-50
2024/01/28 03:56:52;;;;;;;2.77;1.37;;;;;;;;;;5028164;28;20193;-51
2024/01/28 03:59:19;;;;;;;3.47;1.50;;;;;;;;;;5022105;28;20645;-50
2024/01/28 04:01:45;;;;;;;4.13;1.70;;;;;;;;;;5027684;28;20240;-50
2024/01/28 04:04:11;;;;;;;2.25;1.60;;;;;;;;;;5027132;28;20181;-51
2024/01/28 04:06:43;;;;;;;5.03;2.13;;;;;;;;;;5028627;28;20178;-52
2024/01/28 04:09:10;;;;;;;3.57;1.63;;;;;;;;;;5022852;28;20216;-51
2024/01/28 04:11:36;;;;;;;2.37;1.87;;;;;;;;;;5025913;28;20268;-50
2024/01/28 04:14:02;;;;;;;3.00;1.57;;;;;;;;;;5022634;28;20240;-50
2024/01/28 04:16:28;;;;;;;3.97;1.97;;;;;;;;;;5025516;28;20699;-52
2024/01/28 04:18:56;;;;;;;3.10;1.40;;;;;;;;;;5026963;28;20174;-52
2024/01/28 04:21:23;;;;;;;3.60;1.80;;;;;;;;;;5027438;28;20189;-51
2024/01/28 04:23:51;;;;;;;4.50;1.30;;;;;;;;;;5028203;28;20243;-51
2024/01/28 04:26:17;;;;;;;1.67;1.53;;;;;;;;;;5025194;28;20191;-50
2024/01/28 04:28:45;;;;;;;2.47;1.93;;;;;;;;;;5027906;28;20210;-53
2024/01/28 04:31:13;;;;;;;2.17;1.67;;;;;;;;;;5027647;28;20193;-50
2024/01/28 04:33:39;;;;;;;4.87;1.63;;;;;;;;;;5024758;28;20201;-50
2024/01/28 04:36:06;;;;;;;2.60;1.63;;;;;;;;;;5025684;28;20181;-50
2024/01/28 04:38:33;;;;;;;3.53;2.00;;;;;;;;;;5022672;28;20530;-50
2024/01/28 04:40:59;;;;;;;6.50;2.03;;;;;;;;;;5027587;28;20285;-51
2024/01/28 04:43:26;;;;;;;3.07;1.70;;;;;;;;;;5024302;28;20219;-50
2024/01/28 04:45:52;;;;;;;4.33;1.23;;;;;;;;;;5025691;28;20214;-51
2024/01/28 04:48:19;;;;;;;3.87;2.00;;;;;;;;;;5022892;28;20178;-50
2024/01/28 04:50:45;;;;;;;2.37;1.57;;;;;;;;;;5028146;28;20190;-51
2024/01/28 04:53:12;;;;;;;3.67;1.33;;;;;;;;;;5021425;28;21105;-50
2024/01/28 04:55:38;;;;;;;3.40;1.50;;;;;;;;;;5025369;28;20205;-56
2024/01/28 04:58:04;;;;;;;2.80;1.70;;;;;;;;;;5027008;28;20186;-56
2024/01/28 05:00:30;;;;;;;4.83;1.97;;;;;;;;;;4999032;28;20682;-56
2024/01/28 05:02:56;;;;;;;1.73;1.27;;;;;;;;;;5027370;28;20178;-55
2024/01/28 05:05:23;;;;;;;1.80;1.47;;;;;;;;;;5028099;28;20292;-56
2024/01/28 05:07:49;;;;;;;1.53;1.40;;;;;;;;;;5023395;28;20213;-55
2024/01/28 05:10:16;;;;;;;1.77;1.43;;;;;;;;;;5024932;28;20189;-56
2024/01/28 05:12:42;;;;;;;4.67;1.60;;;;;;;;;;5021732;28;20206;-55
2024/01/28 05:15:09;;;;;;;3.50;1.90;;;;;;;;;;5020758;28;20180;-57
2024/01/28 05:17:36;;;;;;;1.97;1.57;;;;;;;;;;5021057;28;20170;-55
2024/01/28 05:20:02;;;;;;;2.17;1.37;;;;;;;;;;5022728;28;20174;-55
2024/01/28 05:22:29;;;;;;;2.00;1.63;;;;;;;;;;5027858;28;20178;-55
2024/01/28 05:24:55;;;;;;;6.80;1.90;;;;;;;;;;5024427;28;20863;-56
2024/01/28 05:27:21;;;;;;;3.20;1.67;;;;;;;;;;5027074;28;20690;-55
2024/01/28 05:29:47;;;;;;;1.60;1.50;;;;;;;;;;5027190;28;20285;-53
2024/01/28 05:32:14;;;;;;;1.70;1.33;;;;;;;;;;5020554;28;20601;-56
2024/01/28 05:34:40;;;;;;;2.67;1.40;;;;;;;;;;5026988;28;20201;-56
2024/01/28 05:37:06;;;;;;;1.87;1.50;;;;;;;;;;5022752;28;20171;-56
2024/01/28 05:39:32;;;;;;;2.27;1.50;;;;;;;;;;5024966;28;20626;-56
2024/01/28 05:41:58;;;;;;;2.37;1.43;;;;;;;;;;5026277;28;20202;-55
2024/01/28 05:44:24;;;;;;;2.77;1.67;;;;;;;;;;5025544;28;20186;-55
2024/01/28 05:46:50;;;;;;;3.37;1.67;;;;;;;;;;5023538;28;20270;-56
2024/01/28 05:49:16;;;;;;;1.63;1.30;;;;;;;;;;5024729;28;20583;-56
2024/01/28 05:51:42;;;;;;;1.93;1.27;;;;;;;;;;5025343;28;20304;-57
2024/01/28 05:54:08;;;;;;;3.40;1.60;;;;;;;;;;5023478;28;20216;-57
2024/01/28 05:56:34;;;;;;;1.40;1.10;;;;;;;;;;5024630;28;20181;-55
2024/01/28 05:59:00;;;;;;;1.77;1.63;;;;;;;;;;5025268;28;20192;-54
2024/01/28 06:01:26;;;;;;;2.90;1.60;;;;;;;;;;5017942;28;20316;-56
2024/01/28 06:03:52;;;;;;;2.77;1.43;;;;;;;;;;5020699;28;20325;-55
2024/01/28 06:06:18;;;;;;;1.50;1.40;;;;;;;;;;5022242;28;20174;-51
2024/01/28 06:08:44;;;;;;;1.37;1.27;;;;;;;;;;5017747;28;20201;-51
2024/01/28 06:11:10;;;;;;;2.27;1.60;;;;;;;;;;5023138;28;20186;-49
2024/01/28 06:13:36;;;;;;;1.70;1.50;;;;;;;;;;5025188;28;20218;-49
2024/01/28 06:16:02;;;;;;;2.30;1.37;;;;;;;;;;5021856;28;20209;-49
2024/01/28 06:18:29;;;;;;;3.13;1.43;;;;;;;;;;5021936;28;20742;-51
2024/01/28 06:20:55;;;;;;;2.13;1.70;;;;;;;;;;5022604;28;20272;-49
2024/01/28 06:23:21;;;;;;;3.53;1.80;;;;;;;;;;5025418;28;20248;-49
2024/01/28 06:25:47;;;;;;;1.57;1.30;;;;;;;;;;5027418;28;20189;-49
2024/01/28 06:28:13;;;;;;;3.00;1.60;;;;;;;;;;5021215;28;20188;-51
2024/01/28 06:30:39;;;;;;;2.00;1.33;;;;;;;;;;5020540;28;20170;-50
2024/01/28 06:33:05;;;;;;;2.07;1.37;;;;;;;;;;5019706;28;20264;-50
2024/01/28 06:35:31;;;;;;;1.73;1.30;;;;;;;;;;5021518;28;20671;-51
2024/01/28 06:37:57;;;;;;;2.50;1.17;;;;;;;;;;5025648;28;20190;-51
2024/01/28 06:40:23;;;;;;;2.57;1.60;;;;;;;;;;5029225;28;20265;-49
2024/01/28 06:42:49;;;;;;;3.50;1.60;;;;;;;;;;5023884;28;20205;-51
2024/01/28 06:45:15;;;;;;;1.30;1.20;;;;;;;;;;5023417;28;22068;-50
2024/01/28 06:47:43;;;;;;;3.50;1.60;;;;;;;;;;5026101;28;20229;-51
2024/01/28 06:50:09;;;;;;;4.60;1.70;;;;;;;;;;5022596;28;20212;-52
2024/01/28 06:52:35;;;;;;;2.27;1.63;;;;;;;;;;5030196;28;20179;-50
2024/01/28 06:55:01;;;;;;;1.57;1.47;;;;;;;;;;5029494;28;20676;-50
2024/01/28 06:57:27;;;;;;;3.07;1.27;;;;;;;;;;5021673;28;20228;-52
2024/01/28 06:59:53;;;;;;;3.17;1.40;;;;;;;;;;5026815;28;20538;-53
2024/01/28 07:02:19;;;;;;;2.60;1.43;;;;;;;;;;5023731;28;20198;-51
2024/01/28 07:04:45;;;;;;;2.03;1.37;;;;;;;;;;5024405;28;20657;-52
2024/01/28 07:07:11;;;;;;;2.63;1.40;;;;;;;;;;5023585;28;20216;-51
2024/01/28 07:09:37;;;;;;;2.93;1.20;;;;;;;;;;5024610;28;20178;-51
2024/01/28 07:12:03;;;;;;;1.53;1.27;;;;;;;;;;5024780;28;20182;-51
2024/01/28 07:14:29;;;;;;;2.10;1.30;;;;;;;;;;5027383;28;20210;-51
2024/01/28 07:16:55;;;;;;;2.17;1.50;;;;;;;;;;5026654;28;20189;-52
2024/01/28 07:19:21;;;;;;;3.43;1.37;;;;;;;;;;5022620;28;20617;-53
2024/01/28 07:21:48;;;;;;;2.60;1.33;;;;;;;;;;5024623;28;20549;-52
2024/01/28 07:24:14;;;;;;;1.77;1.20;;;;;;;;;;5021707;28;20177;-53
2024/01/28 07:26:40;;;;;;;1.30;1.20;;;;;;;;;;5026057;28;20205;-52
2024/01/28 07:29:06;;;;;;;4.30;1.73;;;;;;;;;;5026547;28;20186;-52
2024/01/28 07:31:32;;;;;;;2.57;1.53;;;;;;;;;;5026657;28;20248;-52
2024/01/28 07:33:58;;;;;;;1.27;1.17;;;;;;;;;;5023870;28;20210;-52
2024/01/28 07:36:24;;;;;;;4.20;2.07;;;;;;;;;;5021102;28;20178;-52
2024/01/28 07:38:50;;;;;;;2.70;1.10;;;;;;;;;;5022201;28;20186;-52
2024/01/28 07:41:16;;;;;;;1.23;0.90;;;;;;;;;;5018554;28;20506;-53
2024/01/28 07:43:42;;;;;;;1.73;1.63;;;;;;;;;;5021007;28;20210;-52
2024/01/28 07:46:11;;;;;;;2.33;1.23;;;;;;;;;;5023637;28;20237;-52
2024/01/28 07:48:37;;;;;;;1.87;1.27;;;;;;;;;;5020633;28;20272;-53
2024/01/28 07:51:04;;;;;;;1.87;1.40;;;;;;;;;;5016667;28;20181;-52
2024/01/28 07:53:30;;;;;;;1.53;1.10;;;;;;;;;;5018684;28;20616;-52
2024/01/28 07:55:56;;;;;;;1.67;1.17;;;;;;;;;;5021252;28;20615;-52
2024/01/28 07:58:22;;;;;;;1.47;1.20;;;;;;;;;;5021341;28;20223;-52
2024/01/28 08:00:48;;;;;;;2.00;1.47;;;;;;;;;;5028904;28;20269;-53
2024/01/28 08:03:14;;;;;;;2.23;1.27;;;;;;;;;;5025518;28;20182;-53
2024/01/28 08:05:40;;;;;;;2.20;1.40;;;;;;;;;;5025055;28;20300;-52
2024/01/28 08:08:07;;;;;;;2.17;1.50;;;;;;;;;;5027086;28;20272;-52
2024/01/28 08:10:33;;;;;;;3.23;1.30;;;;;;;;;;5023453;28;20226;-53
2024/01/28 08:13:02;;;;;;;1.63;1.00;;;;;;;;;;5021920;28;20641;-52
2024/01/28 08:15:28;;;;;;;1.40;1.30;;;;;;;;;;5020419;28;20179;-52
2024/01/28 08:17:56;;;;;;;3.33;1.73;;;;;;;;;;5020614;28;20177;-53
2024/01/28 08:20:22;;;;;;;3.67;1.93;;;;;;;;;;5024787;28;20182;-53
2024/01/28 08:22:50;;;;;;;2.90;1.40;;;;;;;;;;5023604;28;20627;-53
2024/01/28 08:25:16;;;;;;;2.30;1.30;;;;;;;;;;5027508;28;20209;-55
2024/01/28 08:27:44;;;;;;;1.83;1.10;;;;;;;;;;5024087;28;20182;-51
2024/01/28 08:30:11;;;;;;;1.43;1.33;;;;;;;;;;5019238;28;20320;-51
2024/01/28 08:32:37;;;;;;;3.60;1.37;;;;;;;;;;5019497;28;20658;-52
2024/01/28 08:35:03;;;;;;;2.23;1.03;;;;;;;;;;5022429;28;20572;-52
2024/01/28 08:37:30;;;;;;;1.30;1.10;;;;;;;;;;5025126;28;20257;-51
2024/01/28 08:39:56;;;;;;;2.10;1.23;;;;;;;;;;5021266;28;20178;-51
2024/01/28 08:42:22;;;;;;;1.85;1.30;;;;;;;;;;5021795;28;20740;-50
2024/01/28 08:44:48;;;;;;;1.30;1.20;;;;;;;;;;5023078;28;20881;-50
2024/01/28 08:47:14;;;;;;;1.90;1.40;;;;;;;;;;5017431;28;20693;-52
2024/01/28 08:49:40;;;;;;;2.33;1.20;;;;;;;;;;5026119;28;20182;-51
2024/01/28 08:52:06;;;;;;;2.87;1.17;;;;;;;;;;5025781;28;20190;-49
2024/01/28 08:54:33;;;;;;;3.03;1.07;;;;;;;;;;5017929;28;20228;-50
2024/01/28 08:56:59;;;;;;;2.07;1.30;;;;;;;;;;5018232;28;20170;-51
2024/01/28 08:59:26;;;;;;;1.63;1.20;;;;;;;;;;5024696;28;20260;-50
2024/01/28 09:01:52;;;;;;;4.23;1.60;;;;;;;;;;5025222;28;20182;-49
2024/01/28 09:04:18;;;;;;;2.67;1.30;;;;;;;;;;5014787;28;20274;-52
2024/01/28 09:06:44;;;;;;;4.23;1.57;;;;;;;;;;5022570;28;20183;-50
2024/01/28 09:09:11;;;;;;;1.70;1.37;;;;;;;;;;5020024;28;20174;-50
2024/01/28 09:11:37;;;;;;;2.67;1.60;;;;;;;;;;5029803;28;20316;-52
2024/01/28 09:14:03;;;;;;;2.00;1.30;;;;;;;;;;5016587;28;20650;-51
2024/01/28 09:16:29;;;;;;;2.37;1.20;;;;;;;;;;5016609;28;20570;-51
2024/01/28 09:18:55;;;;;;;1.87;1.30;;;;;;;;;;5027459;28;20182;-50
2024/01/28 09:21:21;;;;;;;2.80;1.20;;;;;;;;;;5039837;28;20613;-51
2024/01/28 09:23:47;;;;;;;1.63;1.07;;;;;;;;;;5027619;28;20293;-50
2024/01/28 09:26:13;;;;;;;1.53;1.30;;;;;;;;;;5028677;28;20637;-52
2024/01/28 09:28:39;;;;;;;2.37;1.30;;;;;;;;;;5021708;28;20268;-51
2024/01/28 09:31:08;;;;;;;4.83;1.23;;;;;;;;;;5029040;28;20661;-50
2024/01/28 09:33:34;;;;;;;1.50;1.30;;;;;;;;;;5028742;28;20299;-52
2024/01/28 09:36:01;;;;;;;3.17;1.43;;;;;;;;;;5010512;28;20178;-52
2024/01/28 09:38:27;;;;;;;2.07;1.30;;;;;;;;;;5021699;28;20166;-52
2024/01/28 09:40:53;;;;;;;2.43;1.40;;;;;;;;;;5009749;28;20657;-52
2024/01/28 09:43:24;;;;;;;1.97;1.60;;;;;;;;;;5022261;28;20689;-52
2024/01/28 09:45:50;;;;;;;2.00;1.20;;;;;;;;;;5025563;28;20241;-52
2024/01/28 09:48:16;;;;;;;2.40;1.70;;;;;;;;;;5019274;28;20194;-52
2024/01/28 09:50:43;;;;;;;1.87;1.20;;;;;;;;;;5012843;28;20178;-53
2024/01/28 09:53:10;;;;;;;2.10;1.20;;;;;;;;;;5014379;28;20595;-52
2024/01/28 09:55:36;;;;;;;1.50;1.00;;;;;;;;;;5025869;28;20173;-52
2024/01/28 09:58:02;;;;;;;3.00;1.53;;;;;;;;;;5023998;28;20261;-52
2024/01/28 10:00:29;;;;;;;2.33;1.37;;;;;;;;;;5018507;28;20193;-52
2024/01/28 10:02:55;;;;;;;4.23;1.57;;;;;;;;;;5018108;28;20189;-52
2024/01/28 10:05:21;;;;;;;2.10;1.40;;;;;;;;;;5017183;28;20249;-53
2024/01/28 10:07:50;;;;;;;1.90;1.17;;;;;;;;;;5022917;28;20185;-53
2024/01/28 10:10:17;;;;;;;2.47;1.47;;;;;;;;;;5014799;28;20173;-52
2024/01/28 10:12:43;;;;;;;3.23;1.43;;;;;;;;;;5021889;28;20630;-53
2024/01/28 10:15:16;;;;;;;2.20;1.30;;;;;;;;;;5017720;28;20197;-52
2024/01/28 10:17:47;;;;;;;1.70;1.40;;;;;;;;;;5013812;28;20203;-52
2024/01/28 10:20:14;;;;;;;1.73;1.23;;;;;;;;;;5017547;28;20294;-52
2024/01/28 10:22:40;;;;;;;1.67;1.13;;;;;;;;;;5019466;28;20687;-51
2024/01/28 10:25:07;;;;;;;2.70;1.40;;;;;;;;;;5015427;28;21608;-53
2024/01/28 10:27:33;;;;;;;3.87;1.73;;;;;;;;;;5012139;28;20185;-52
2024/01/28 10:29:59;;;;;;;1.93;1.57;;;;;;;;;;5013822;28;20166;-53
2024/01/28 10:32:25;;;;;;;2.63;1.43;;;;;;;;;;5015695;28;20166;-52
2024/01/28 10:34:52;;;;;;;3.10;1.83;;;;;;;;;;5017894;28;20205;-52
2024/01/28 10:37:18;;;;;;;1.57;1.20;;;;;;;;;;5015876;28;20170;-52
2024/01/28 10:39:45;;;;;;;4.53;1.50;;;;;;;;;;5011890;28;20261;-52
2024/01/28 10:42:13;;;;;;;2.60;1.60;;;;;;;;;;5018130;28;20206;-52
2024/01/28 10:44:44;;;;;;;3.67;1.43;;;;;;;;;;5020147;28;20264;-52
2024/01/28 10:47:13;;;;;;;2.20;1.70;;;;;;;;;;5016954;28;20545;-56
2024/01/28 10:49:40;;;;;;;3.25;1.50;;;;;;;;;;5017608;28;20182;-55
2024/01/28 10:52:08;;;;;;;4.30;1.60;;;;;;;;;;5015777;28;20240;-55
2024/01/28 10:54:34;;;;;;;2.57;1.70;;;;;;;;;;5012503;28;20529;-55
2024/01/28 10:57:00;;;;;;;2.40;1.23;;;;;;;;;;5016927;28;20174;-56
2024/01/28 10:59:27;;;;;;;3.07;1.80;;;;;;;;;;5016474;28;20601;-55
2024/01/28 11:01:53;;;;;;;3.73;1.70;;;;;;;;;;5018184;28;20205;-56
2024/01/28 11:04:19;;;;;;;2.40;1.70;;;;;;;;;;5019802;28;20563;-55
2024/01/28 11:06:46;;;;;;;2.20;1.23;;;;;;;;;;5019866;28;20193;-55
2024/01/28 11:09:12;;;;;;;1.50;1.40;;;;;;;;;;5017837;28;20193;-56
2024/01/28 11:11:38;;;;;;;1.80;1.30;;;;;;;;;;5016739;28;20221;-56
2024/01/28 11:14:07;;;;;;;2.77;1.50;;;;;;;;;;5023564;28;20289;-55
2024/01/28 11:16:33;;;;;;;3.37;1.50;;;;;;;;;;5013293;28;20170;-55
2024/01/28 11:19:08;;;;;;;1.53;1.40;;;;;;;;;;5016115;28;20210;-56
2024/01/28 11:21:34;;;;;;;3.93;1.63;;;;;;;;;;5020505;28;20166;-56
2024/01/28 11:24:06;;;;;;;1.80;1.43;;;;;;;;;;5023028;28;20293;-56
2024/01/28 11:26:36;;;;;;;1.83;1.17;;;;;;;;;;5017796;28;20332;-56
2024/01/28 11:29:05;;;;;;;3.10;1.50;;;;;;;;;;5025891;28;20268;-56
2024/01/28 11:31:33;;;;;;;2.40;1.37;;;;;;;;;;5020621;28;20197;-55
2024/01/28 11:34:08;;;;;;;2.07;1.67;;;;;;;;;;5014179;28;20236;-55
2024/01/28 11:36:39;;;;;;;3.37;1.90;;;;;;;;;;5015066;28;20209;-56
2024/01/28 11:39:06;;;;;;;2.53;1.57;;;;;;;;;;5025146;28;20178;-56
2024/01/28 11:41:39;;;;;;;2.10;1.40;;;;;;;;;;5004341;28;20642;-55
2024/01/28 11:44:09;;;;;;;2.57;1.40;;;;;;;;;;5018317;28;20212;-56
2024/01/28 11:46:36;;;;;;;3.00;1.80;;;;;;;;;;5016638;28;20256;-55
2024/01/28 11:49:02;;;;;;;2.70;1.73;;;;;;;;;;5017386;28;20183;-55
2024/01/28 11:51:31;;;;;;;1.67;1.40;;;;;;;;;;5019825;28;20259;-54
2024/01/28 11:53:59;;;;;;;2.27;1.40;;;;;;;;;;5014179;28;20210;-55
2024/01/28 11:56:25;;;;;;;3.60;1.50;;;;;;;;;;5015107;28;20657;-55
2024/01/28 11:58:51;;;;;;;3.67;1.70;;;;;;;;;;5019274;28;20190;-55
2024/01/28 12:01:17;;;;;;;4.13;1.57;;;;;;;;;;5017367;28;20277;-56
2024/01/28 12:03:43;;;;;;;1.97;1.50;;;;;;;;;;5015172;28;20213;-58
2024/01/28 12:06:09;;;;;;;1.23;1.13;;;;;;;;;;5015746;28;20546;-55
2024/01/28 12:08:40;;;;;;;1.30;1.20;;;;;;;;;;5015946;28;20182;-55
2024/01/28 12:11:06;;;;;;;1.90;1.50;;;;;;;;;;5015637;28;20177;-54
2024/01/28 12:13:32;;;;;;;2.47;1.50;;;;;;;;;;5016998;28;20248;-55
2024/01/28 12:16:02;;;;;;;2.53;1.50;;;;;;;;;;5013916;28;20232;-54
2024/01/28 12:18:34;;;;;;;2.77;1.60;;;;;;;;;;5014671;28;20174;-55
2024/01/28 12:21:00;;;;;;;2.37;1.30;;;;;;;;;;5015635;28;20229;-54
2024/01/28 12:23:27;;;;;;;3.57;1.80;;;;;;;;;;5018828;28;20233;-55
2024/01/28 12:25:56;;;;;;;2.17;1.47;;;;;;;;;;5019078;28;20186;-54
2024/01/28 12:28:23;;;;;;;1.97;1.37;;;;;;;;;;5022265;28;20187;-55
2024/01/28 12:30:49;;;;;;;2.47;1.77;;;;;;;;;;5020545;28;20319;-55
2024/01/28 12:33:18;;;;;;;2.80;1.53;;;;;;;;;;5017969;28;20205;-55
2024/01/28 12:35:44;;;;;;;2.73;1.53;;;;;;;;;;5014680;28;20163;-56
2024/01/28 12:38:11;;;;;;;2.77;1.50;;;;;;;;;;5019745;28;20676;-54
2024/01/28 12:40:37;;;;;;;3.27;1.67;;;;;;;;;;5016705;28;20182;-55
2024/01/28 12:43:03;;;;;;;2.10;1.57;;;;;;;;;;5015590;28;20555;-55
2024/01/28 12:45:29;;;;;;;3.50;1.70;;;;;;;;;;5015692;28;20207;-55
2024/01/28 12:47:55;;;;;;;1.50;1.40;;;;;;;;;;5019033;28;20194;-54
2024/01/28 12:50:21;;;;;;;2.30;1.47;;;;;;;;;;5019902;28;20615;-54
2024/01/28 12:52:47;;;;;;;2.03;1.50;;;;;;;;;;5019741;28;20204;-53
2024/01/28 12:55:13;;;;;;;2.30;1.80;;;;;;;;;;5020203;28;20182;-55
2024/01/28 12:57:39;;;;;;;2.27;1.70;;;;;;;;;;5021536;28;20268;-56
2024/01/28 13:00:06;;;;;;;4.57;1.50;;;;;;;;;;5018526;28;20732;-56
2024/01/28 13:02:32;;;;;;;3.20;2.07;;;;;;;;;;5012605;28;20189;-55
2024/01/28 13:04:58;;;;;;;2.07;1.63;;;;;;;;;;5020026;28;20198;-55
2024/01/28 13:07:24;;;;;;;2.70;1.43;;;;;;;;;;5017095;28;20178;-51
2024/01/28 13:09:50;;;;;;;1.57;1.37;;;;;;;;;;5022038;28;20544;-53
2024/01/28 13:12:16;;;;;;;3.87;1.80;;;;;;;;;;5019613;28;21655;-52
2024/01/28 13:14:42;;;;;;;1.53;1.30;;;;;;;;;;5018014;28;20201;-50
2024/01/28 13:17:09;;;;;;;2.47;1.43;;;;;;;;;;5021956;28;20240;-51
2024/01/28 13:19:35;;;;;;;1.60;1.50;;;;;;;;;;5021633;28;20213;-50
2024/01/28 13:22:01;;;;;;;2.97;1.37;;;;;;;;;;5022004;28;20209;-49
2024/01/28 13:24:27;;;;;;;2.87;1.47;;;;;;;;;;5012219;28;20286;-51
2024/01/28 13:26:53;;;;;;;2.63;1.70;;;;;;;;;;5020094;28;20662;-55
2024/01/28 13:29:22;;;;;;;2.80;1.70;;;;;;;;;;5017285;28;20181;-50
2024/01/28 13:31:48;;;;;;;3.63;1.83;;;;;;;;;;5023647;28;20189;-53
2024/01/28 13:34:14;;;;;;;3.03;2.43;;;;;;;;;;5019707;28;20271;-54
2024/01/28 13:36:40;;;;;;;1.90;1.70;;;;;;;;;;5020585;28;20174;-52
2024/01/28 13:39:06;;;;;;;3.97;1.70;;;;;;;;;;5016581;28;20204;-52
2024/01/28 13:41:32;;;;;;;1.53;1.30;;;;;;;;;;5014232;28;20214;-52
2024/01/28 13:43:58;;;;;;;3.50;1.73;;;;;;;;;;5026115;28;20628;-50
2024/01/28 13:46:24;;;;;;;2.40;1.60;;;;;;;;;;5014177;28;20225;-52
2024/01/28 13:48:50;;;;;;;2.83;1.60;;;;;;;;;;5021329;28;20185;-51
2024/01/28 13:51:16;;;;;;;1.67;1.40;;;;;;;;;;5024192;28;20170;-50
2024/01/28 13:53:42;;;;;;;2.77;1.60;;;;;;;;;;5022022;28;20748;-51
2024/01/28 13:56:08;;;;;;;2.87;1.73;;;;;;;;;;5020327;28;20685;-50
2024/01/28 13:58:34;;;;;;;3.10;1.87;;;;;;;;;;5013211;28;20643;-52
2024/01/28 14:01:00;;;;;;;2.80;1.90;;;;;;;;;;5015002;28;20693;-53
2024/01/28 14:03:26;;;;;;;2.30;1.40;;;;;;;;;;5017374;28;20180;-51
2024/01/28 14:05:52;;;;;;;3.40;1.80;;;;;;;;;;5021359;28;20184;-53
2024/01/28 14:08:20;;;;;;;3.03;1.80;;;;;;;;;;5022558;28;20706;-52
2024/01/28 14:10:46;;;;;;;1.53;1.40;;;;;;;;;;5024089;28;20172;-51
2024/01/28 14:13:12;;;;;;;2.57;1.90;;;;;;;;;;5019064;28;20199;-51
2024/01/28 14:15:38;;;;;;;3.57;2.20;;;;;;;;;;5015039;28;20541;-54
2024/01/28 14:18:05;;;;;;;1.80;1.60;;;;;;;;;;5021903;28;20183;-54
2024/01/28 14:20:31;;;;;;;2.27;1.70;;;;;;;;;;5014831;28;20410;-54
2024/01/28 14:22:57;;;;;;;2.13;1.50;;;;;;;;;;5020070;28;20178;-54
2024/01/28 14:25:23;;;;;;;3.67;1.80;;;;;;;;;;5013470;28;20638;-55
2024/01/28 14:27:49;;;;;;;2.17;1.90;;;;;;;;;;5019629;28;20666;-54
2024/01/28 14:30:15;;;;;;;2.63;1.80;;;;;;;;;;5018261;28;20181;-53
2024/01/28 14:32:41;;;;;;;3.23;1.60;;;;;;;;;;5019192;28;20261;-53
2024/01/28 14:35:07;;;;;;;2.67;1.60;;;;;;;;;;5019549;28;20300;-53
2024/01/28 14:37:33;;;;;;;2.17;1.70;;;;;;;;;;5021789;28;20267;-53
2024/01/28 14:40:00;;;;;;;2.37;1.63;;;;;;;;;;5020754;28;20174;-53